sensor_id;sensor_type;location;lat;lon;timestamp;P1;P2;P0
31163;PMS5003;17796;49.296;-117.656;2022-08-18T00:07:56;15;13;
31163;PMS5003;17796;49.296;-117.656;2022-08-18T00:23:00;13;12;
31163;PMS5003;17796;49.296;-117.656;2022-08-18T00:38:06;16;13;
31163;PMS5003;17796;49.296;-117.656;2022-08-18T00:53:14;13;12;
31163;PMS5003;17796;49.296;-117.656;2022-08-18T01:08:20;16;13;
31163;PMS5003;17796;49.296;-117.656;2022-08-18T01:23:25;18;15;
31163;PMS5003;17796;49.296;-117.656;2022-08-18T01:38:30;13;13;
31163;PMS5003;17796;49.296;-117.656;2022-08-18T01:53:34;12;12;
31163;PMS5003;17796;49.296;-117.656;2022-08-18T02:08:39;13;13;
31163;PMS5003;17796;49.296;-117.656;2022-08-18T02:23:44;12;12;
31163;PMS5003;17796;49.296;-117.656;2022-08-18T02:38:47;16;13;
31163;PMS5003;17796;49.296;-117.656;2022-08-18T02:53:52;13;11;
31163;PMS5003;17796;49.296;-117.656;2022-08-18T03:08:56;14;12;
31163;PMS5003;17796;49.296;-117.656;2022-08-18T03:24:01;12;12;
31163;PMS5003;17796;49.296;-117.656;2022-08-18T03:39:07;11;11;
31163;PMS5003;17796;49.296;-117.656;2022-08-18T03:54:11;11;11;
31163;PMS5003;17796;49.296;-117.656;2022-08-18T04:09:16;9;9;
31163;PMS5003;17796;49.296;-117.656;2022-08-18T04:24:21;10;10;
31163;PMS5003;17796;49.296;-117.656;2022-08-18T04:39:24;9;9;
31163;PMS5003;17796;49.296;-117.656;2022-08-18T04:54:28;7;7;
31163;PMS5003;17796;49.296;-117.656;2022-08-18T05:09:33;7;7;
31163;PMS5003;17796;49.296;-117.656;2022-08-18T05:24:37;9;9;
31163;PMS5003;17796;49.296;-117.656;2022-08-18T05:39:52;7;7;
31163;PMS5003;17796;49.296;-117.656;2022-08-18T05:55:02;9;9;
31163;PMS5003;17796;49.296;-117.656;2022-08-18T06:10:09;11;11;
31163;PMS5003;17796;49.296;-117.656;2022-08-18T06:25:19;8;8;
31163;PMS5003;17796;49.296;-117.656;2022-08-18T06:40:24;11;11;
31163;PMS5003;17796;49.296;-117.656;2022-08-18T06:55:35;11;10;
31163;PMS5003;17796;49.296;-117.656;2022-08-18T07:10:42;11;11;
31163;PMS5003;17796;49.296;-117.656;2022-08-18T07:25:46;9;9;
31163;PMS5003;17796;49.296;-117.656;2022-08-18T07:40:56;13;10;
31163;PMS5003;17796;49.296;-117.656;2022-08-18T07:56:04;6;6;
31163;PMS5003;17796;49.296;-117.656;2022-08-18T08:11:19;7;6;
31163;PMS5003;17796;49.296;-117.656;2022-08-18T08:26:33;7;7;
31163;PMS5003;17796;49.296;-117.656;2022-08-18T08:41:42;7;7;
31163;PMS5003;17796;49.296;-117.656;2022-08-18T08:56:52;8;7;
31163;PMS5003;17796;49.296;-117.656;2022-08-18T09:12:11;8;7;
31163;PMS5003;17796;49.296;-117.656;2022-08-18T09:27:37;7;7;
31163;PMS5003;17796;49.296;-117.656;2022-08-18T09:42:47;9;9;
31163;PMS5003;17796;49.296;-117.656;2022-08-18T09:58:14;7;7;
31163;PMS5003;17796;49.296;-117.656;2022-08-18T10:13:23;7;7;
31163;PMS5003;17796;49.296;-117.656;2022-08-18T10:29:04;7;7;
31163;PMS5003;17796;49.296;-117.656;2022-08-18T10:44:13;9;9;
31163;PMS5003;17796;49.296;-117.656;2022-08-18T10:59:25;9;9;
31163;PMS5003;17796;49.296;-117.656;2022-08-18T11:14:56;10;9;
31163;PMS5003;17796;49.296;-117.656;2022-08-18T11:30:05;9;9;
31163;PMS5003;17796;49.296;-117.656;2022-08-18T11:45:15;8;8;
31163;PMS5003;17796;49.296;-117.656;2022-08-18T12:02:31;14;11;
31163;PMS5003;17796;49.296;-117.656;2022-08-18T12:17:35;7;6;
31163;PMS5003;17796;49.296;-117.656;2022-08-18T12:32:39;8;8;
31163;PMS5003;17796;49.296;-117.656;2022-08-18T12:47:42;7;7;
31163;PMS5003;17796;49.296;-117.656;2022-08-18T13:02:46;8;8;
31163;PMS5003;17796;49.296;-117.656;2022-08-18T13:17:50;10;9;
31163;PMS5003;17796;49.296;-117.656;2022-08-18T13:32:54;6;6;
31163;PMS5003;17796;49.296;-117.656;2022-08-18T13:47:57;6;6;
31163;PMS5003;17796;49.296;-117.656;2022-08-18T14:03:01;9;8;
31163;PMS5003;17796;49.296;-117.656;2022-08-18T14:18:05;5;5;
31163;PMS5003;17796;49.296;-117.656;2022-08-18T14:33:09;9;9;
31163;PMS5003;17796;49.296;-117.656;2022-08-18T14:48:14;10;10;
31163;PMS5003;17796;49.296;-117.656;2022-08-18T15:03:18;10;10;
31163;PMS5003;17796;49.296;-117.656;2022-08-18T15:18:22;11;11;
31163;PMS5003;17796;49.296;-117.656;2022-08-18T15:33:25;11;11;
31163;PMS5003;17796;49.296;-117.656;2022-08-18T15:48:29;9;9;
31163;PMS5003;17796;49.296;-117.656;2022-08-18T16:03:33;12;12;
31163;PMS5003;17796;49.296;-117.656;2022-08-18T16:18:37;14;10;
31163;PMS5003;17796;49.296;-117.656;2022-08-18T16:33:41;12;12;
31163;PMS5003;17796;49.296;-117.656;2022-08-18T16:48:45;12;12;
31163;PMS5003;17796;49.296;-117.656;2022-08-18T17:03:49;11;9;
31163;PMS5003;17796;49.296;-117.656;2022-08-18T17:18:53;8;8;
31163;PMS5003;17796;49.296;-117.656;2022-08-18T17:34:04;12;12;
31163;PMS5003;17796;49.296;-117.656;2022-08-18T17:49:13;15;14;
31163;PMS5003;17796;49.296;-117.656;2022-08-18T18:04:20;10;10;
31163;PMS5003;17796;49.296;-117.656;2022-08-18T18:19:24;16;14;
31163;PMS5003;17796;49.296;-117.656;2022-08-18T18:34:32;12;10;
31163;PMS5003;17796;49.296;-117.656;2022-08-18T18:49:44;17;14;
31163;PMS5003;17796;49.296;-117.656;2022-08-18T19:04:54;22;19;
31163;PMS5003;17796;49.296;-117.656;2022-08-18T19:20:05;18;17;
31163;PMS5003;17796;49.296;-117.656;2022-08-18T19:35:15;23;23;
31163;PMS5003;17796;49.296;-117.656;2022-08-18T19:50:26;12;12;
31163;PMS5003;17796;49.296;-117.656;2022-08-18T20:05:39;13;13;
31163;PMS5003;17796;49.296;-117.656;2022-08-18T20:21:30;13;11;
31163;PMS5003;17796;49.296;-117.656;2022-08-18T20:36:36;11;11;
31163;PMS5003;17796;49.296;-117.656;2022-08-18T20:51:48;14;13;
31163;PMS5003;17796;49.296;-117.656;2022-08-18T21:06:57;15;15;
31163;PMS5003;17796;49.296;-117.656;2022-08-18T21:22:02;14;13;
31163;PMS5003;17796;49.296;-117.656;2022-08-18T21:37:08;15;15;
31163;PMS5003;17796;49.296;-117.656;2022-08-18T21:52:21;15;15;
31163;PMS5003;17796;49.296;-117.656;2022-08-18T22:07:25;15;15;
31163;PMS5003;17796;49.296;-117.656;2022-08-18T22:22:34;15;14;
31163;PMS5003;17796;49.296;-117.656;2022-08-18T22:37:43;15;14;
31163;PMS5003;17796;49.296;-117.656;2022-08-18T22:52:48;14;14;
31163;PMS5003;17796;49.296;-117.656;2022-08-18T23:07:52;14;14;
31163;PMS5003;17796;49.296;-117.656;2022-08-18T23:22:56;11;11;
31163;PMS5003;17796;49.296;-117.656;2022-08-18T23:37:59;16;16;
31163;PMS5003;17796;49.296;-117.656;2022-08-18T23:53:03;15;15;
